sensor_id;sensor_type;location;lat;lon;timestamp;pressure;altitude;pressure_sealevel;temperature;humidity
8697;BME280;4385;48.848;8.924;2023-12-20T00:01:09;97374.91;;;17.78;100.00
8697;BME280;4385;48.848;8.924;2023-12-20T00:03:34;97381.66;;;17.79;100.00
8697;BME280;4385;48.848;8.924;2023-12-20T00:06:00;97380.81;;;17.79;100.00
8697;BME280;4385;48.848;8.924;2023-12-20T00:08:25;97379.09;;;17.81;100.00
8697;BME280;4385;48.848;8.924;2023-12-20T00:10:50;97376.53;;;17.81;100.00
8697;BME280;4385;48.848;8.924;2023-12-20T00:13:15;97362.94;;;17.80;100.00
8697;BME280;4385;48.848;8.924;2023-12-20T00:15:41;97357.84;;;17.80;100.00
8697;BME280;4385;48.848;8.924;2023-12-20T00:18:06;97351.94;;;17.80;100.00
8697;BME280;4385;48.848;8.924;2023-12-20T00:20:32;97340.88;;;17.79;100.00
8697;BME280;4385;48.848;8.924;2023-12-20T00:22:57;97349.38;;;17.80;100.00
8697;BME280;4385;48.848;8.924;2023-12-20T00:25:23;97342.56;;;17.80;100.00
8697;BME280;4385;48.848;8.924;2023-12-20T00:27:48;97346.81;;;17.81;100.00
8697;BME280;4385;48.848;8.924;2023-12-20T00:30:14;97337.53;;;17.77;100.00
8697;BME280;4385;48.848;8.924;2023-12-20T00:32:39;97335.84;;;17.76;100.00
8697;BME280;4385;48.848;8.924;2023-12-20T00:35:06;97343.50;;;17.76;100.00
8697;BME280;4385;48.848;8.924;2023-12-20T00:37:32;97339.28;;;17.75;100.00
8697;BME280;4385;48.848;8.924;2023-12-20T00:39:57;97343.53;;;17.75;100.00
8697;BME280;4385;48.848;8.924;2023-12-20T00:42:22;97345.25;;;17.74;100.00
8697;BME280;4385;48.848;8.924;2023-12-20T00:44:47;97345.28;;;17.73;100.00
8697;BME280;4385;48.848;8.924;2023-12-20T00:47:13;97342.75;;;17.71;100.00
8697;BME280;4385;48.848;8.924;2023-12-20T00:49:38;97344.47;;;17.70;100.00
8697;BME280;4385;48.848;8.924;2023-12-20T00:52:03;97347.88;;;17.69;100.00
8697;BME280;4385;48.848;8.924;2023-12-20T00:54:29;97344.50;;;17.69;100.00
8697;BME280;4385;48.848;8.924;2023-12-20T00:56:55;97345.41;;;17.66;100.00
8697;BME280;4385;48.848;8.924;2023-12-20T00:59:21;97342.03;;;17.66;100.00
8697;BME280;4385;48.848;8.924;2023-12-20T01:01:46;97349.69;;;17.66;100.00
8697;BME280;4385;48.848;8.924;2023-12-20T01:04:11;97336.94;;;17.66;100.00
8697;BME280;4385;48.848;8.924;2023-12-20T01:06:36;97335.25;;;17.65;100.00
8697;BME280;4385;48.848;8.924;2023-12-20T01:09:02;97329.28;;;17.66;100.00
8697;BME280;4385;48.848;8.924;2023-12-20T01:11:27;97339.53;;;17.64;100.00
8697;BME280;4385;48.848;8.924;2023-12-20T01:13:53;97345.44;;;17.65;100.00
8697;BME280;4385;48.848;8.924;2023-12-20T01:16:18;97347.97;;;17.65;100.00
8697;BME280;4385;48.848;8.924;2023-12-20T01:18:43;97342.88;;;17.65;100.00
8697;BME280;4385;48.848;8.924;2023-12-20T01:21:09;97342.88;;;17.65;100.00
8697;BME280;4385;48.848;8.924;2023-12-20T01:23:34;97339.47;;;17.66;100.00
8697;BME280;4385;48.848;8.924;2023-12-20T01:25:59;97347.13;;;17.66;100.00
8697;BME280;4385;48.848;8.924;2023-12-20T01:28:25;97347.97;;;17.65;100.00
8697;BME280;4385;48.848;8.924;2023-12-20T01:30:50;97342.88;;;17.65;100.00
8697;BME280;4385;48.848;8.924;2023-12-20T01:33:16;97338.66;;;17.64;100.00
8697;BME280;4385;48.848;8.924;2023-12-20T01:35:41;97339.56;;;17.63;100.00
8697;BME280;4385;48.848;8.924;2023-12-20T01:38:06;97340.41;;;17.62;100.00
8697;BME280;4385;48.848;8.924;2023-12-20T01:40:32;97337.00;;;17.63;100.00
8697;BME280;4385;48.848;8.924;2023-12-20T01:43:01;97329.41;;;17.61;100.00
8697;BME280;4385;48.848;8.924;2023-12-20T01:45:26;97337.84;;;17.62;100.00
8697;BME280;4385;48.848;8.924;2023-12-20T01:47:52;97332.78;;;17.60;100.00
8697;BME280;4385;48.848;8.924;2023-12-20T01:50:18;97328.56;;;17.59;100.00
8697;BME280;4385;48.848;8.924;2023-12-20T01:52:44;97331.16;;;17.57;100.00
8697;BME280;4385;48.848;8.924;2023-12-20T01:55:10;97328.59;;;17.57;100.00
8697;BME280;4385;48.848;8.924;2023-12-20T01:57:43;97331.16;;;17.57;100.00
8697;BME280;4385;48.848;8.924;2023-12-20T02:00:11;97340.47;;;17.58;100.00
8697;BME280;4385;48.848;8.924;2023-12-20T02:02:39;97338.75;;;17.59;100.00
8697;BME280;4385;48.848;8.924;2023-12-20T02:05:06;97332.81;;;17.58;100.00
8697;BME280;4385;48.848;8.924;2023-12-20T02:07:31;97333.66;;;17.59;100.00
8697;BME280;4385;48.848;8.924;2023-12-20T02:09:57;97339.63;;;17.60;100.00
8697;BME280;4385;48.848;8.924;2023-12-20T02:12:22;97332.81;;;17.58;100.00
8697;BME280;4385;48.848;8.924;2023-12-20T02:14:48;97341.31;;;17.59;100.00
8697;BME280;4385;48.848;8.924;2023-12-20T02:17:14;97342.16;;;17.60;100.00
8697;BME280;4385;48.848;8.924;2023-12-20T02:19:39;97331.09;;;17.61;100.00
8697;BME280;4385;48.848;8.924;2023-12-20T02:22:12;97332.78;;;17.60;100.00
8697;BME280;4385;48.848;8.924;2023-12-20T02:24:38;97342.97;;;17.60;100.00
8697;BME280;4385;48.848;8.924;2023-12-20T02:27:05;97335.34;;;17.60;100.00
8697;BME280;4385;48.848;8.924;2023-12-20T02:29:32;97340.41;;;17.62;100.00
8697;BME280;4385;48.848;8.924;2023-12-20T02:31:58;97337.00;;;17.63;100.00
8697;BME280;4385;48.848;8.924;2023-12-20T02:34:23;97342.94;;;17.62;100.00
8697;BME280;4385;48.848;8.924;2023-12-20T02:36:48;97337.03;;;17.61;100.00
8697;BME280;4385;48.848;8.924;2023-12-20T02:39:14;97338.72;;;17.61;100.00
8697;BME280;4385;48.848;8.924;2023-12-20T02:41:39;97341.31;;;17.59;100.00
8697;BME280;4385;48.848;8.924;2023-12-20T02:44:04;97348.09;;;17.58;100.00
8697;BME280;4385;48.848;8.924;2023-12-20T02:46:29;97348.09;;;17.58;100.00
8697;BME280;4385;48.848;8.924;2023-12-20T02:48:55;97343.91;;;17.57;100.00
8697;BME280;4385;48.848;8.924;2023-12-20T02:51:20;97349.88;;;17.56;100.00
8697;BME280;4385;48.848;8.924;2023-12-20T02:53:45;97354.09;;;17.57;100.00
8697;BME280;4385;48.848;8.924;2023-12-20T02:56:11;97348.09;;;17.58;100.00
8697;BME280;4385;48.848;8.924;2023-12-20T02:58:36;97355.72;;;17.60;100.00
8697;BME280;4385;48.848;8.924;2023-12-20T03:01:01;97354.03;;;17.61;100.00
8697;BME280;4385;48.848;8.924;2023-12-20T03:03:27;97357.44;;;17.60;100.00
8697;BME280;4385;48.848;8.924;2023-12-20T03:05:52;97356.59;;;17.59;100.00
8697;BME280;4385;48.848;8.924;2023-12-20T03:08:17;97350.69;;;17.57;100.00
8697;BME280;4385;48.848;8.924;2023-12-20T03:10:42;97355.81;;;17.55;100.00
8697;BME280;4385;48.848;8.924;2023-12-20T03:13:08;97359.25;;;17.54;100.00
8697;BME280;4385;48.848;8.924;2023-12-20T03:15:33;97359.25;;;17.54;100.00
8697;BME280;4385;48.848;8.924;2023-12-20T03:17:58;97363.53;;;17.52;100.00
8697;BME280;4385;48.848;8.924;2023-12-20T03:20:24;97364.44;;;17.50;100.00
8697;BME280;4385;48.848;8.924;2023-12-20T03:22:51;97357.69;;;17.47;100.00
8697;BME280;4385;48.848;8.924;2023-12-20T03:25:16;97364.53;;;17.45;100.00
8697;BME280;4385;48.848;8.924;2023-12-20T03:27:41;97365.41;;;17.44;100.00
8697;BME280;4385;48.848;8.924;2023-12-20T03:30:07;97362.03;;;17.42;100.00
8697;BME280;4385;48.848;8.924;2023-12-20T03:32:32;97359.59;;;17.37;100.00
8697;BME280;4385;48.848;8.924;2023-12-20T03:34:58;97366.38;;;17.37;100.00
8697;BME280;4385;48.848;8.924;2023-12-20T03:37:23;97367.25;;;17.36;100.00
8697;BME280;4385;48.848;8.924;2023-12-20T03:39:48;97363.03;;;17.35;100.00
8697;BME280;4385;48.848;8.924;2023-12-20T03:42:13;97365.59;;;17.35;100.00
8697;BME280;4385;48.848;8.924;2023-12-20T03:44:39;97371.50;;;17.35;100.00
8697;BME280;4385;48.848;8.924;2023-12-20T03:47:05;97366.41;;;17.35;100.00
8697;BME280;4385;48.848;8.924;2023-12-20T03:49:30;97368.13;;;17.35;100.00
8697;BME280;4385;48.848;8.924;2023-12-20T03:51:55;97368.09;;;17.36;100.00
8697;BME280;4385;48.848;8.924;2023-12-20T03:54:21;97367.25;;;17.36;100.00
8697;BME280;4385;48.848;8.924;2023-12-20T03:56:46;97369.81;;;17.36;100.00
8697;BME280;4385;48.848;8.924;2023-12-20T03:59:11;97375.78;;;17.35;100.00
8697;BME280;4385;48.848;8.924;2023-12-20T04:01:36;97368.13;;;17.35;100.00
8697;BME280;4385;48.848;8.924;2023-12-20T04:04:02;97377.44;;;17.36;100.00
8697;BME280;4385;48.848;8.924;2023-12-20T04:06:27;97380.88;;;17.35;100.00
8697;BME280;4385;48.848;8.924;2023-12-20T04:08:53;97382.53;;;17.36;100.00
8697;BME280;4385;48.848;8.924;2023-12-20T04:11:18;97375.78;;;17.35;100.00
8697;BME280;4385;48.848;8.924;2023-12-20T04:13:43;97379.16;;;17.33;100.00
8697;BME280;4385;48.848;8.924;2023-12-20T04:16:09;97388.50;;;17.35;100.00
8697;BME280;4385;48.848;8.924;2023-12-20T04:18:34;97391.91;;;17.33;100.00
8697;BME280;4385;48.848;8.924;2023-12-20T04:20:59;97395.31;;;17.34;100.00
8697;BME280;4385;48.848;8.924;2023-12-20T04:23:24;97392.72;;;17.36;100.00
8697;BME280;4385;48.848;8.924;2023-12-20T04:25:50;97381.69;;;17.35;100.00
8697;BME280;4385;48.848;8.924;2023-12-20T04:28:15;97384.22;;;17.35;100.00
8697;BME280;4385;48.848;8.924;2023-12-20T04:30:41;97390.19;;;17.36;100.00
8697;BME280;4385;48.848;8.924;2023-12-20T04:33:06;97385.06;;;17.37;100.00
8697;BME280;4385;48.848;8.924;2023-12-20T04:35:31;97394.41;;;17.37;100.00
8697;BME280;4385;48.848;8.924;2023-12-20T04:37:57;97409.66;;;17.38;100.00
8697;BME280;4385;48.848;8.924;2023-12-20T04:40:22;97411.38;;;17.38;100.00
8697;BME280;4385;48.848;8.924;2023-12-20T04:42:47;97413.03;;;17.39;100.00
8697;BME280;4385;48.848;8.924;2023-12-20T04:45:13;97413.03;;;17.39;100.00
8697;BME280;4385;48.848;8.924;2023-12-20T04:47:41;97407.94;;;17.39;100.00
8697;BME280;4385;48.848;8.924;2023-12-20T04:50:07;97408.78;;;17.41;100.00
8697;BME280;4385;48.848;8.924;2023-12-20T04:52:33;97411.31;;;17.41;100.00
8697;BME280;4385;48.848;8.924;2023-12-20T04:54:58;97412.13;;;17.41;100.00
8697;BME280;4385;48.848;8.924;2023-12-20T04:57:24;97428.28;;;17.42;100.00
8697;BME280;4385;48.848;8.924;2023-12-20T04:59:50;97429.97;;;17.41;100.00
8697;BME280;4385;48.848;8.924;2023-12-20T05:02:15;97429.94;;;17.43;100.00
8697;BME280;4385;48.848;8.924;2023-12-20T05:04:40;97442.69;;;17.43;100.00
8697;BME280;4385;48.848;8.924;2023-12-20T05:07:06;97440.13;;;17.43;100.00
8697;BME280;4385;48.848;8.924;2023-12-20T05:09:32;97445.22;;;17.43;100.00
8697;BME280;4385;48.848;8.924;2023-12-20T05:11:57;97446.03;;;17.45;100.00
8697;BME280;4385;48.848;8.924;2023-12-20T05:14:22;97440.97;;;17.43;100.00
8697;BME280;4385;48.848;8.924;2023-12-20T05:16:47;97439.31;;;17.42;100.00
8697;BME280;4385;48.848;8.924;2023-12-20T05:19:13;97446.94;;;17.42;100.00
8697;BME280;4385;48.848;8.924;2023-12-20T05:21:39;97441.81;;;17.44;100.00
8697;BME280;4385;48.848;8.924;2023-12-20T05:24:04;97449.47;;;17.44;100.00
8697;BME280;4385;48.848;8.924;2023-12-20T05:26:30;97449.47;;;17.44;100.00
8697;BME280;4385;48.848;8.924;2023-12-20T05:28:55;97450.25;;;17.46;100.00
8697;BME280;4385;48.848;8.924;2023-12-20T05:31:20;97451.09;;;17.47;100.00
8697;BME280;4385;48.848;8.924;2023-12-20T05:33:46;97461.28;;;17.48;100.00
8697;BME280;4385;48.848;8.924;2023-12-20T05:36:11;97474.81;;;17.52;100.00
8697;BME280;4385;48.848;8.924;2023-12-20T05:38:38;97457.00;;;17.50;100.00
8697;BME280;4385;48.848;8.924;2023-12-20T05:41:04;97460.34;;;17.52;100.00
8697;BME280;4385;48.848;8.924;2023-12-20T05:43:29;97475.63;;;17.52;100.00
8697;BME280;4385;48.848;8.924;2023-12-20T05:45:55;97466.28;;;17.53;100.00
8697;BME280;4385;48.848;8.924;2023-12-20T05:48:20;97469.69;;;17.53;100.00
8697;BME280;4385;48.848;8.924;2023-12-20T05:50:45;97473.03;;;17.55;100.00
8697;BME280;4385;48.848;8.924;2023-12-20T05:53:10;97474.72;;;17.56;100.00
8697;BME280;4385;48.848;8.924;2023-12-20T05:55:36;97485.69;;;17.58;100.00
8697;BME280;4385;48.848;8.924;2023-12-20T05:58:01;97502.69;;;17.60;100.00
8697;BME280;4385;48.848;8.924;2023-12-20T06:00:26;97501.00;;;17.58;100.00
8697;BME280;4385;48.848;8.924;2023-12-20T06:02:51;97505.22;;;17.61;100.00
8697;BME280;4385;48.848;8.924;2023-12-20T06:05:17;97497.53;;;17.63;100.00
8697;BME280;4385;48.848;8.924;2023-12-20T06:07:42;97507.72;;;17.63;100.00
8697;BME280;4385;48.848;8.924;2023-12-20T06:10:07;97507.69;;;17.64;100.00
8697;BME280;4385;48.848;8.924;2023-12-20T06:12:33;97505.13;;;17.66;100.00
8697;BME280;4385;48.848;8.924;2023-12-20T06:15:00;97505.91;;;17.68;100.00
8697;BME280;4385;48.848;8.924;2023-12-20T06:17:26;97499.13;;;17.68;100.00
8697;BME280;4385;48.848;8.924;2023-12-20T06:19:51;97510.94;;;17.71;100.00
8697;BME280;4385;48.848;8.924;2023-12-20T06:22:16;97516.03;;;17.73;100.00
8697;BME280;4385;48.848;8.924;2023-12-20T06:24:42;97522.84;;;17.72;100.00
8697;BME280;4385;48.848;8.924;2023-12-20T06:27:07;97528.72;;;17.74;100.00
8697;BME280;4385;48.848;8.924;2023-12-20T06:29:32;97528.72;;;17.74;100.00
8697;BME280;4385;48.848;8.924;2023-12-20T06:31:58;97525.34;;;17.75;100.00
8697;BME280;4385;48.848;8.924;2023-12-20T06:34:23;97515.16;;;17.75;100.00
8697;BME280;4385;48.848;8.924;2023-12-20T06:36:48;97522.78;;;17.75;100.00
8697;BME280;4385;48.848;8.924;2023-12-20T06:39:13;97521.94;;;17.75;100.00
8697;BME280;4385;48.848;8.924;2023-12-20T06:41:39;97529.63;;;17.73;100.00
8697;BME280;4385;48.848;8.924;2023-12-20T06:44:05;97533.88;;;17.71;100.00
8697;BME280;4385;48.848;8.924;2023-12-20T06:46:30;97541.59;;;17.68;100.00
8697;BME280;4385;48.848;8.924;2023-12-20T06:48:55;97538.25;;;17.66;100.00
8697;BME280;4385;48.848;8.924;2023-12-20T06:51:21;97545.94;;;17.64;100.00
8697;BME280;4385;48.848;8.924;2023-12-20T06:53:50;97541.69;;;17.62;100.00
8697;BME280;4385;48.848;8.924;2023-12-20T06:56:15;97543.41;;;17.63;100.00
8697;BME280;4385;48.848;8.924;2023-12-20T06:58:41;97548.56;;;17.60;100.00
8697;BME280;4385;48.848;8.924;2023-12-20T07:01:11;97555.38;;;17.57;100.00
8697;BME280;4385;48.848;8.924;2023-12-20T07:03:36;97565.56;;;17.57;100.00
8697;BME280;4385;48.848;8.924;2023-12-20T07:06:02;97564.69;;;17.58;100.00
8697;BME280;4385;48.848;8.924;2023-12-20T07:08:27;97570.63;;;17.59;100.00
8697;BME280;4385;48.848;8.924;2023-12-20T07:10:53;97577.44;;;17.58;100.00
8697;BME280;4385;48.848;8.924;2023-12-20T07:13:18;97582.53;;;17.58;100.00
8697;BME280;4385;48.848;8.924;2023-12-20T07:15:43;97593.56;;;17.59;100.00
8697;BME280;4385;48.848;8.924;2023-12-20T07:18:08;97596.09;;;17.61;100.00
8697;BME280;4385;48.848;8.924;2023-12-20T07:20:34;97610.50;;;17.62;100.00
8697;BME280;4385;48.848;8.924;2023-12-20T07:22:59;97618.16;;;17.62;100.00
8697;BME280;4385;48.848;8.924;2023-12-20T07:25:24;97609.66;;;17.63;100.00
8697;BME280;4385;48.848;8.924;2023-12-20T07:27:50;97616.41;;;17.64;100.00
8697;BME280;4385;48.848;8.924;2023-12-20T07:30:15;97613.00;;;17.65;100.00
8697;BME280;4385;48.848;8.924;2023-12-20T07:32:40;97612.94;;;17.68;100.00
8697;BME280;4385;48.848;8.924;2023-12-20T07:35:06;97605.25;;;17.71;100.00
8697;BME280;4385;48.848;8.924;2023-12-20T07:37:31;97595.06;;;17.71;100.00
8697;BME280;4385;48.848;8.924;2023-12-20T07:39:57;97596.75;;;17.72;100.00
8697;BME280;4385;48.848;8.924;2023-12-20T07:42:22;97600.97;;;17.73;100.00
8697;BME280;4385;48.848;8.924;2023-12-20T07:44:47;97601.81;;;17.75;100.00
8697;BME280;4385;48.848;8.924;2023-12-20T07:47:13;97599.25;;;17.75;100.00
8697;BME280;4385;48.848;8.924;2023-12-20T07:49:42;97602.66;;;17.74;100.00
8697;BME280;4385;48.848;8.924;2023-12-20T07:52:07;97606.94;;;17.74;100.00
8697;BME280;4385;48.848;8.924;2023-12-20T07:54:33;97607.75;;;17.74;100.00
8697;BME280;4385;48.848;8.924;2023-12-20T07:56:58;97606.94;;;17.74;100.00
8697;BME280;4385;48.848;8.924;2023-12-20T07:59:23;97609.44;;;17.75;100.00
8697;BME280;4385;48.848;8.924;2023-12-20T08:01:49;97610.25;;;17.77;100.00
8697;BME280;4385;48.848;8.924;2023-12-20T08:04:14;97614.47;;;17.80;100.00
8697;BME280;4385;48.848;8.924;2023-12-20T08:06:39;97617.78;;;17.83;100.00
8697;BME280;4385;48.848;8.924;2023-12-20T08:09:05;97618.59;;;17.86;100.00
8697;BME280;4385;48.848;8.924;2023-12-20T08:11:30;97616.91;;;17.86;100.00
8697;BME280;4385;48.848;8.924;2023-12-20T08:13:55;97626.19;;;17.89;100.00
8697;BME280;4385;48.848;8.924;2023-12-20T08:16:21;97632.97;;;17.90;100.00
8697;BME280;4385;48.848;8.924;2023-12-20T08:18:47;97636.38;;;17.90;100.00
8697;BME280;4385;48.848;8.924;2023-12-20T08:21:12;97634.63;;;17.92;100.00
8697;BME280;4385;48.848;8.924;2023-12-20T08:23:37;97639.66;;;17.97;100.00
8697;BME280;4385;48.848;8.924;2023-12-20T08:26:04;97648.03;;;18.02;100.00
8697;BME280;4385;48.848;8.924;2023-12-20T08:28:30;97640.31;;;18.07;100.00
8697;BME280;4385;48.848;8.924;2023-12-20T08:30:56;97642.81;;;18.12;100.00
8697;BME280;4385;48.848;8.924;2023-12-20T08:33:21;97637.66;;;18.15;100.00
8697;BME280;4385;48.848;8.924;2023-12-20T08:35:46;97649.50;;;18.19;100.00
8697;BME280;4385;48.848;8.924;2023-12-20T08:38:12;97650.22;;;18.26;100.00
8697;BME280;4385;48.848;8.924;2023-12-20T08:40:37;97650.09;;;18.32;100.00
8697;BME280;4385;48.848;8.924;2023-12-20T08:43:03;97655.19;;;18.32;100.00
8697;BME280;4385;48.848;8.924;2023-12-20T08:45:28;97651.00;;;18.29;100.00
8697;BME280;4385;48.848;8.924;2023-12-20T08:47:53;97645.03;;;18.29;100.00
8697;BME280;4385;48.848;8.924;2023-12-20T08:50:19;97645.94;;;18.28;100.00
8697;BME280;4385;48.848;8.924;2023-12-20T08:52:44;97647.63;;;18.27;100.00
8697;BME280;4385;48.848;8.924;2023-12-20T08:55:09;97647.59;;;18.29;100.00
8697;BME280;4385;48.848;8.924;2023-12-20T08:57:35;97639.94;;;18.29;100.00
8697;BME280;4385;48.848;8.924;2023-12-20T09:00:01;97639.91;;;18.30;100.00
8697;BME280;4385;48.848;8.924;2023-12-20T09:02:26;97644.19;;;18.30;100.00
8697;BME280;4385;48.848;8.924;2023-12-20T09:04:51;97649.28;;;18.31;100.00
8697;BME280;4385;48.848;8.924;2023-12-20T09:07:23;97645.81;;;18.34;100.00
8697;BME280;4385;48.848;8.924;2023-12-20T09:09:49;97632.19;;;18.34;100.00
8697;BME280;4385;48.848;8.924;2023-12-20T09:12:15;97629.63;;;18.35;100.00
8697;BME280;4385;48.848;8.924;2023-12-20T09:14:40;97627.91;;;18.37;100.00
8697;BME280;4385;48.848;8.924;2023-12-20T09:17:06;97617.66;;;18.39;100.00
8697;BME280;4385;48.848;8.924;2023-12-20T09:19:33;97626.97;;;18.40;100.00
8697;BME280;4385;48.848;8.924;2023-12-20T09:21:59;97614.19;;;18.41;100.00
8697;BME280;4385;48.848;8.924;2023-12-20T09:24:24;97626.91;;;18.43;100.00
8697;BME280;4385;48.848;8.924;2023-12-20T09:26:49;97623.53;;;18.44;100.00
8697;BME280;4385;48.848;8.924;2023-12-20T09:29:15;97614.09;;;18.46;100.00
8697;BME280;4385;48.848;8.924;2023-12-20T09:31:40;97620.03;;;18.48;100.00
8697;BME280;4385;48.848;8.924;2023-12-20T09:34:05;97624.22;;;18.51;100.00
8697;BME280;4385;48.848;8.924;2023-12-20T09:36:31;97627.59;;;18.53;100.00
8697;BME280;4385;48.848;8.924;2023-12-20T09:39:01;97635.22;;;18.54;100.00
8697;BME280;4385;48.848;8.924;2023-12-20T09:41:28;97635.22;;;18.54;100.00
8697;BME280;4385;48.848;8.924;2023-12-20T09:44:01;97641.19;;;18.53;100.00
8697;BME280;4385;48.848;8.924;2023-12-20T09:46:28;97631.78;;;18.55;100.00
8697;BME280;4385;48.848;8.924;2023-12-20T09:48:59;97627.63;;;18.51;100.00
8697;BME280;4385;48.848;8.924;2023-12-20T09:51:25;97633.59;;;18.50;100.00
8697;BME280;4385;48.848;8.924;2023-12-20T09:53:54;97645.53;;;18.48;100.00
8697;BME280;4385;48.848;8.924;2023-12-20T09:56:20;97637.06;;;18.46;100.00
8697;BME280;4385;48.848;8.924;2023-12-20T09:58:45;97640.50;;;18.45;100.00
8697;BME280;4385;48.848;8.924;2023-12-20T10:01:11;97654.13;;;18.44;100.00
8697;BME280;4385;48.848;8.924;2023-12-20T10:03:39;97661.84;;;18.41;100.00
8697;BME280;4385;48.848;8.924;2023-12-20T10:06:06;97653.38;;;18.39;100.00
8697;BME280;4385;48.848;8.924;2023-12-20T10:08:32;97633.03;;;18.36;100.00
8697;BME280;4385;48.848;8.924;2023-12-20T10:10:58;97648.38;;;18.32;100.00
8697;BME280;4385;48.848;8.924;2023-12-20T10:13:27;97632.31;;;18.27;100.00
8697;BME280;4385;48.848;8.924;2023-12-20T10:15:55;97639.22;;;18.24;100.00
8697;BME280;4385;48.848;8.924;2023-12-20T10:18:20;97636.72;;;18.21;100.00
8697;BME280;4385;48.848;8.924;2023-12-20T10:20:46;97631.69;;;18.17;100.00
8697;BME280;4385;48.848;8.924;2023-12-20T10:23:11;97629.16;;;18.16;100.00
8697;BME280;4385;48.848;8.924;2023-12-20T10:25:37;97625.78;;;18.14;100.00
8697;BME280;4385;48.848;8.924;2023-12-20T10:28:14;97619.84;;;18.12;100.00
8697;BME280;4385;48.848;8.924;2023-12-20T10:30:40;97615.59;;;18.11;100.00
8697;BME280;4385;48.848;8.924;2023-12-20T10:33:07;97621.59;;;18.11;100.00
8697;BME280;4385;48.848;8.924;2023-12-20T10:35:33;97620.72;;;18.11;100.00
8697;BME280;4385;48.848;8.924;2023-12-20T10:38:04;97627.53;;;18.08;100.00
8697;BME280;4385;48.848;8.924;2023-12-20T10:40:36;97621.63;;;18.08;100.00
8697;BME280;4385;48.848;8.924;2023-12-20T10:43:02;97623.34;;;18.06;100.00
8697;BME280;4385;48.848;8.924;2023-12-20T10:45:28;97630.13;;;18.07;100.00
8697;BME280;4385;48.848;8.924;2023-12-20T10:47:53;97620.78;;;18.06;100.00
8697;BME280;4385;48.848;8.924;2023-12-20T10:50:19;97617.38;;;18.05;100.00
8697;BME280;4385;48.848;8.924;2023-12-20T10:52:45;97620.81;;;18.04;100.00
8697;BME280;4385;48.848;8.924;2023-12-20T10:55:11;97615.72;;;18.04;100.00
8697;BME280;4385;48.848;8.924;2023-12-20T10:57:37;97616.59;;;18.03;100.00
8697;BME280;4385;48.848;8.924;2023-12-20T11:00:05;97619.16;;;18.03;100.00
8697;BME280;4385;48.848;8.924;2023-12-20T11:02:39;97612.34;;;18.02;100.00
8697;BME280;4385;48.848;8.924;2023-12-20T11:08:12;97612.28;;;18.05;100.00
8697;BME280;4385;48.848;8.924;2023-12-20T11:10:59;97625.88;;;18.07;100.00
8697;BME280;4385;48.848;8.924;2023-12-20T11:13:32;97606.28;;;18.11;100.00
8697;BME280;4385;48.848;8.924;2023-12-20T11:15:59;97612.16;;;18.15;100.00
8697;BME280;4385;48.848;8.924;2023-12-20T11:18:31;97610.38;;;18.18;100.00
8697;BME280;4385;48.848;8.924;2023-12-20T11:21:00;97606.94;;;18.21;100.00
8697;BME280;4385;48.848;8.924;2023-12-20T11:23:26;97592.41;;;18.25;100.00
8697;BME280;4385;48.848;8.924;2023-12-20T11:25:53;97594.06;;;18.27;100.00
8697;BME280;4385;48.848;8.924;2023-12-20T11:28:24;97598.25;;;18.31;100.00
8697;BME280;4385;48.848;8.924;2023-12-20T11:30:57;97596.47;;;18.35;100.00
8697;BME280;4385;48.848;8.924;2023-12-20T11:33:44;97592.13;;;18.40;100.00
8697;BME280;4385;48.848;8.924;2023-12-20T11:36:14;97596.28;;;18.44;100.00
8697;BME280;4385;48.848;8.924;2023-12-20T11:38:58;97599.63;;;18.48;100.00
8697;BME280;4385;48.848;8.924;2023-12-20T11:41:25;97595.28;;;18.52;100.00
8697;BME280;4385;48.848;8.924;2023-12-20T11:43:55;97601.16;;;18.55;100.00
8697;BME280;4385;48.848;8.924;2023-12-20T11:46:21;97596.00;;;18.57;100.00
8697;BME280;4385;48.848;8.924;2023-12-20T11:48:47;97584.03;;;18.61;100.00
8697;BME280;4385;48.848;8.924;2023-12-20T11:51:13;97586.53;;;18.64;100.00
8697;BME280;4385;48.848;8.924;2023-12-20T11:53:42;97583.91;;;18.67;100.00
8697;BME280;4385;48.848;8.924;2023-12-20T11:56:08;97582.97;;;18.71;100.00
8697;BME280;4385;48.848;8.924;2023-12-20T11:58:34;97575.25;;;18.74;100.00
8697;BME280;4385;48.848;8.924;2023-12-20T12:01:00;97575.16;;;18.77;100.00
8697;BME280;4385;48.848;8.924;2023-12-20T12:03:27;97574.28;;;18.80;100.00
8697;BME280;4385;48.848;8.924;2023-12-20T12:05:53;97580.16;;;18.82;100.00
8697;BME280;4385;48.848;8.924;2023-12-20T12:08:18;97578.47;;;18.82;100.00
8697;BME280;4385;48.848;8.924;2023-12-20T12:10:44;97573.28;;;18.86;100.00
8697;BME280;4385;48.848;8.924;2023-12-20T12:13:09;97574.09;;;18.88;100.00
8697;BME280;4385;48.848;8.924;2023-12-20T12:15:36;97580.03;;;18.88;100.00
8697;BME280;4385;48.848;8.924;2023-12-20T12:18:01;97572.38;;;18.88;100.00
8697;BME280;4385;48.848;8.924;2023-12-20T12:20:27;97571.56;;;18.88;100.00
8697;BME280;4385;48.848;8.924;2023-12-20T12:23:03;97571.63;;;18.85;100.00
8697;BME280;4385;48.848;8.924;2023-12-20T12:25:30;97569.06;;;18.85;100.00
8697;BME280;4385;48.848;8.924;2023-12-20T12:27:56;97564.78;;;18.85;100.00
8697;BME280;4385;48.848;8.924;2023-12-20T12:30:22;97563.94;;;18.86;100.00
8697;BME280;4385;48.848;8.924;2023-12-20T12:32:48;97568.13;;;18.89;100.00
8697;BME280;4385;48.848;8.924;2023-12-20T12:35:13;97565.53;;;18.90;100.00
8697;BME280;4385;48.848;8.924;2023-12-20T12:37:40;97566.34;;;18.92;100.00
8697;BME280;4385;48.848;8.924;2023-12-20T12:40:09;97571.41;;;18.94;100.00
8697;BME280;4385;48.848;8.924;2023-12-20T12:42:35;97561.16;;;18.96;100.00
8697;BME280;4385;48.848;8.924;2023-12-20T12:45:00;97552.66;;;18.95;100.00
8697;BME280;4385;48.848;8.924;2023-12-20T12:47:25;97562.03;;;18.94;100.00
8697;BME280;4385;48.848;8.924;2023-12-20T12:49:51;97554.38;;;18.94;100.00
8697;BME280;4385;48.848;8.924;2023-12-20T12:52:18;97563.72;;;18.96;100.00
8697;BME280;4385;48.848;8.924;2023-12-20T12:54:43;97560.31;;;18.95;100.00
8697;BME280;4385;48.848;8.924;2023-12-20T12:57:10;97561.25;;;18.92;100.00
8697;BME280;4385;48.848;8.924;2023-12-20T12:59:35;97562.94;;;18.92;100.00
8697;BME280;4385;48.848;8.924;2023-12-20T13:02:01;97556.16;;;18.91;100.00
8697;BME280;4385;48.848;8.924;2023-12-20T13:04:26;97545.97;;;18.91;100.00
8697;BME280;4385;48.848;8.924;2023-12-20T13:06:51;97554.47;;;18.90;100.00